Time;durP1;ratioP1;P1;durP2;ratioP2;P2;SDS_P1;SDS_P2;PMS_P1;PMS_P2;Temp;Humidity;BMP_temperature;BMP_pressure;BME280_temperature;BME280_humidity;BME280_pressure;Samples;Min_cycle;Max_cycle;Signal;HPM_P1;HPM_P2
2022/10/10 00:01:57;;;;;;;3.50;0.57;;;8.20;99.90;;;;;;5082699;28;20221;-80
2022/10/10 00:04:22;;;;;;;1.37;0.70;;;8.30;99.90;;;;;;5081095;28;20224;-81
2022/10/10 00:06:48;;;;;;;7.70;1.03;;;8.30;99.90;;;;;;5083289;28;20182;-82
2022/10/10 00:09:13;;;;;;;1.43;0.73;;;8.30;99.90;;;;;;5081989;28;20190;-81
2022/10/10 00:11:39;;;;;;;2.37;0.37;;;8.30;99.90;;;;;;5075419;28;20221;-85
2022/10/10 00:14:05;;;;;;;3.00;2.17;;;8.30;99.90;;;;;;5072962;28;20171;-80
2022/10/10 00:16:30;;;;;;;1.63;0.73;;;8.30;99.90;;;;;;5072415;28;20175;-80
2022/10/10 00:18:55;;;;;;;4.77;0.63;;;8.20;99.90;;;;;;5073004;28;20176;-80
2022/10/10 00:21:21;;;;;;;5.60;0.57;;;8.20;99.90;;;;;;5072472;28;20179;-80
2022/10/10 00:23:46;;;;;;;4.10;0.90;;;8.20;99.90;;;;;;5072824;28;20177;-80
2022/10/10 00:26:12;;;;;;;2.67;0.70;;;8.20;99.90;;;;;;5073044;28;20180;-80
2022/10/10 00:28:37;;;;;;;2.30;0.83;;;8.20;99.90;;;;;;5072926;28;20218;-80
2022/10/10 00:31:07;;;;;;;1.43;0.80;;;8.10;99.90;;;;;;5072894;28;20566;-79
2022/10/10 00:33:33;;;;;;;1.13;0.30;;;8.10;99.90;;;;;;5072870;28;20173;-85
2022/10/10 00:35:59;;;;;;;2.23;0.40;;;8.10;99.90;;;;;;5072282;28;20468;-83
2022/10/10 00:38:24;;;;;;;1.60;0.47;;;8.10;99.90;;;;;;5072677;28;20173;-83
2022/10/10 00:40:53;;;;;;;2.13;0.37;;;8.10;99.90;;;;;;5072781;28;20170;-80
2022/10/10 00:43:20;;;;;;;0.67;0.30;;;8.10;99.90;;;;;;5072581;28;20165;-83
2022/10/10 00:45:46;;;;;;;3.57;0.50;;;8.10;99.90;;;;;;5072629;28;20440;-82
2022/10/10 00:48:23;;;;;;;0.83;0.40;;;8.10;99.90;;;;;;5072426;28;20422;-81
2022/10/10 00:50:54;;;;;;;2.80;0.60;;;8.10;99.90;;;;;;5072271;28;20500;-83
2022/10/10 00:53:24;;;;;;;2.17;0.70;;;8.10;99.90;;;;;;5072541;28;20973;-81
2022/10/10 00:55:50;;;;;;;4.00;0.70;;;8.10;99.90;;;;;;5072632;28;20572;-79
2022/10/10 00:58:17;;;;;;;1.73;0.53;;;8.10;99.90;;;;;;5072659;28;20444;-80
2022/10/10 01:00:43;;;;;;;4.43;0.70;;;8.10;99.90;;;;;;5073777;28;20946;-84
2022/10/10 01:03:08;;;;;;;2.20;0.40;;;8.00;99.90;;;;;;5072599;28;20500;-80
2022/10/10 01:05:34;;;;;;;3.57;0.80;;;8.10;99.90;;;;;;5071985;28;20644;-80
2022/10/10 01:08:02;;;;;;;0.60;0.30;;;8.10;99.90;;;;;;5072319;28;20170;-83
2022/10/10 01:10:28;;;;;;;4.70;0.93;;;8.00;99.90;;;;;;5072505;28;20174;-83
2022/10/10 01:13:18;;;;;;;3.43;1.10;;;8.00;99.90;;;;;;5072236;28;20556;-80
2022/10/10 01:15:59;;;;;;;1.63;0.50;;;8.00;99.90;;;;;;5072322;28;20209;-79
2022/10/10 01:19:12;;;;;;;2.30;0.93;;;8.00;99.90;;;;;;5072336;28;20412;-80
2022/10/10 01:22:15;;;;;;;1.30;0.50;;;7.90;99.90;;;;;;5071942;28;20492;-80
2022/10/10 01:24:55;;;;;;;0.80;0.50;;;7.90;99.90;;;;;;5072252;28;20404;-79
2022/10/10 01:27:29;;;;;;;2.80;0.80;;;7.90;99.90;;;;;;5074875;28;20853;-83
2022/10/10 01:30:05;;;;;;;2.00;0.57;;;7.90;99.90;;;;;;5076261;28;20964;-80
2022/10/10 01:32:37;;;;;;;6.80;1.20;;;7.90;99.90;;;;;;5075960;28;20420;-80
2022/10/10 01:35:40;;;;;;;4.10;1.60;;;7.80;99.90;;;;;;5076161;28;20524;-80
2022/10/10 01:38:27;;;;;;;3.73;0.40;;;7.80;99.90;;;;;;5076108;28;20765;-84
2022/10/10 01:41:04;;;;;;;4.20;0.40;;;7.80;99.90;;;;;;5076034;28;20404;-80
2022/10/10 01:43:30;;;;;;;2.30;0.50;;;7.80;99.90;;;;;;5076120;28;20422;-79
2022/10/10 01:45:55;;;;;;;3.13;0.40;;;7.70;99.90;;;;;;5075933;28;20401;-80
2022/10/10 01:48:29;;;;;;;6.00;0.93;;;7.70;99.90;;;;;;5075831;28;20426;-80
2022/10/10 01:51:27;;;;;;;2.10;0.73;;;7.60;99.90;;;;;;5075446;28;20269;-80
2022/10/10 01:54:11;;;;;;;2.23;0.40;;;7.60;99.90;;;;;;5075965;28;20433;-82
2022/10/10 01:57:10;;;;;;;2.00;0.67;;;7.60;99.90;;;;;;5075556;28;20787;-80
2022/10/10 02:00:07;;;;;;;1.53;0.53;;;7.60;99.90;;;;;;5074377;28;20912;-80
2022/10/10 02:03:00;;;;;;;1.40;0.67;;;7.60;99.90;;;;;;5075706;28;20475;-80
2022/10/10 02:05:47;;;;;;;2.43;1.10;;;7.60;99.90;;;;;;5075266;28;20414;-80
2022/10/10 02:08:32;;;;;;;3.43;0.63;;;7.60;99.90;;;;;;5075670;28;20431;-80
2022/10/10 02:11:01;;;;;;;1.23;0.53;;;7.50;99.90;;;;;;5075326;28;20417;-84
2022/10/10 02:13:49;;;;;;;2.63;0.73;;;7.50;99.90;;;;;;5075456;28;20890;-84
2022/10/10 02:16:20;;;;;;;1.30;0.50;;;7.40;99.90;;;;;;5075273;28;20469;-83
2022/10/10 02:18:47;;;;;;;4.50;0.80;;;7.40;99.90;;;;;;5075212;28;20418;-80
2022/10/10 02:21:14;;;;;;;1.70;0.50;;;7.40;99.90;;;;;;5074848;28;20430;-80
2022/10/10 02:23:42;;;;;;;2.30;0.73;;;7.30;99.90;;;;;;5075364;28;20420;-84
2022/10/10 02:26:11;;;;;;;3.30;1.13;;;7.30;99.90;;;;;;5075119;28;20418;-84
2022/10/10 02:28:54;;;;;;;4.60;0.60;;;7.20;99.90;;;;;;5075024;28;20920;-80
2022/10/10 02:32:04;;;;;;;4.90;0.87;;;7.20;99.90;;;;;;5075177;28;20413;-84
2022/10/10 02:34:34;;;;;;;4.87;0.80;;;7.20;99.90;;;;;;5074516;28;20499;-80
2022/10/10 02:37:04;;;;;;;7.30;1.00;;;7.10;99.90;;;;;;5073926;28;20556;-80
2022/10/10 02:39:34;;;;;;;7.77;0.80;;;7.10;99.90;;;;;;5074172;28;20517;-83
2022/10/10 02:42:03;;;;;;;1.50;0.63;;;7.10;99.90;;;;;;5075053;28;20423;-80
2022/10/10 02:44:29;;;;;;;1.03;0.60;;;7.10;99.90;;;;;;5074875;28;20423;-80
2022/10/10 02:46:55;;;;;;;2.20;0.47;;;7.00;99.90;;;;;;5074751;28;20512;-80
2022/10/10 02:49:29;;;;;;;2.53;0.60;;;7.00;99.90;;;;;;5074864;28;20569;-82
2022/10/10 02:51:54;;;;;;;6.13;1.40;;;7.00;99.90;;;;;;5074295;28;20264;-82
2022/10/10 02:54:20;;;;;;;1.93;0.83;;;7.00;99.90;;;;;;5074485;28;21057;-80
2022/10/10 02:56:45;;;;;;;5.20;1.37;;;7.00;99.90;;;;;;5074774;28;20291;-80
2022/10/10 02:59:11;;;;;;;1.90;0.83;;;6.90;99.90;;;;;;5074744;28;20168;-80
2022/10/10 03:01:36;;;;;;;4.50;0.83;;;6.90;99.90;;;;;;5074520;28;20182;-81
2022/10/10 03:04:02;;;;;;;2.10;1.27;;;6.90;99.90;;;;;;5074682;28;20178;-80
2022/10/10 03:06:28;;;;;;;4.10;0.97;;;6.90;99.90;;;;;;5074108;28;20175;-82
2022/10/10 03:08:53;;;;;;;5.53;0.80;;;6.90;99.90;;;;;;5074327;28;20169;-79
2022/10/10 03:11:18;;;;;;;2.60;0.90;;;6.90;99.90;;;;;;5074232;28;20219;-80
2022/10/10 03:13:44;;;;;;;6.00;0.53;;;6.80;99.90;;;;;;5074285;28;20634;-80
2022/10/10 03:16:10;;;;;;;1.73;0.67;;;6.80;99.90;;;;;;5074199;28;20212;-80
2022/10/10 03:18:35;;;;;;;3.17;0.87;;;6.80;99.90;;;;;;5074310;28;20187;-81
2022/10/10 03:21:02;;;;;;;1.70;0.87;;;6.80;99.90;;;;;;5073842;28;20172;-79
2022/10/10 03:23:27;;;;;;;1.40;0.77;;;6.80;99.90;;;;;;5074023;28;20168;-79
2022/10/10 03:25:53;;;;;;;3.10;1.10;;;6.70;99.90;;;;;;5074040;28;20783;-79
2022/10/10 03:28:18;;;;;;;4.73;1.10;;;6.70;99.90;;;;;;5074018;28;20648;-84
2022/10/10 03:30:45;;;;;;;5.67;1.00;;;6.70;99.90;;;;;;5074043;28;20173;-80
2022/10/10 03:33:10;;;;;;;4.03;0.90;;;6.70;99.90;;;;;;5073865;28;20166;-82
2022/10/10 03:35:36;;;;;;;2.40;0.90;;;6.70;99.90;;;;;;5073480;28;20990;-82
2022/10/10 03:38:01;;;;;;;1.27;0.73;;;6.70;99.90;;;;;;5073904;28;20181;-79
2022/10/10 03:40:28;;;;;;;1.43;0.30;;;6.70;99.90;;;;;;5073683;28;20220;-81
2022/10/10 03:42:53;;;;;;;3.60;1.30;;;6.60;99.90;;;;;;5073631;28;20197;-80
2022/10/10 03:45:19;;;;;;;2.77;0.80;;;6.60;99.90;;;;;;5073922;28;20466;-79
2022/10/10 03:47:44;;;;;;;5.93;1.03;;;6.70;99.90;;;;;;5072340;28;20177;-79
2022/10/10 03:50:10;;;;;;;1.13;0.50;;;6.60;99.90;;;;;;5072205;28;20234;-81
2022/10/10 03:52:35;;;;;;;1.53;0.77;;;6.60;99.90;;;;;;5073600;28;20576;-82
2022/10/10 03:55:01;;;;;;;3.53;0.93;;;6.60;99.90;;;;;;5073297;28;20565;-79
2022/10/10 03:57:27;;;;;;;3.57;0.73;;;6.60;99.90;;;;;;5073343;28;20166;-81
2022/10/10 03:59:53;;;;;;;2.57;2.37;;;6.60;99.90;;;;;;5073439;28;20424;-79
2022/10/10 04:02:18;;;;;;;2.63;1.07;;;6.60;99.90;;;;;;5073376;28;20179;-78
2022/10/10 04:04:44;;;;;;;2.77;1.17;;;6.60;99.90;;;;;;5073291;28;20633;-79
2022/10/10 04:07:09;;;;;;;6.30;1.33;;;6.60;99.90;;;;;;5072952;28;20182;-79
2022/10/10 04:09:35;;;;;;;2.90;1.27;;;6.50;99.90;;;;;;5073222;28;20231;-78
2022/10/10 04:12:07;;;;;;;2.27;1.30;;;6.50;99.90;;;;;;5069878;28;21069;-80
2022/10/10 04:14:32;;;;;;;3.03;1.60;;;6.50;99.90;;;;;;5070011;28;20487;-83
2022/10/10 04:16:58;;;;;;;3.33;1.57;;;6.50;99.90;;;;;;5069734;28;20744;-80
2022/10/10 04:19:23;;;;;;;2.17;0.80;;;6.40;99.90;;;;;;5069686;28;20264;-81
2022/10/10 04:21:49;;;;;;;2.50;0.50;;;6.40;99.90;;;;;;5069464;28;20527;-81
2022/10/10 04:24:15;;;;;;;3.67;0.97;;;6.40;99.90;;;;;;5069481;28;20971;-81
2022/10/10 04:26:40;;;;;;;1.60;0.83;;;6.40;99.90;;;;;;5069631;28;20579;-81
2022/10/10 04:29:06;;;;;;;1.50;0.60;;;6.30;99.90;;;;;;5069496;28;20573;-83
2022/10/10 04:31:31;;;;;;;3.77;1.40;;;6.40;99.90;;;;;;5069379;28;20205;-81
2022/10/10 04:33:57;;;;;;;1.23;0.73;;;6.30;99.90;;;;;;5069553;28;20669;-83
2022/10/10 04:36:22;;;;;;;4.63;1.97;;;6.30;99.90;;;;;;5068973;28;20249;-81
2022/10/10 04:38:48;;;;;;;1.77;0.73;;;6.30;99.90;;;;;;5069310;28;20161;-80
2022/10/10 04:41:13;;;;;;;2.90;1.27;;;6.30;99.90;;;;;;5069282;28;20181;-81
2022/10/10 04:43:39;;;;;;;6.27;1.60;;;6.30;99.90;;;;;;5069112;28;20178;-81
2022/10/10 04:46:10;;;;;;;2.97;0.87;;;6.20;99.90;;;;;;5069090;28;20183;-80
2022/10/10 04:48:36;;;;;;;1.97;0.93;;;6.20;99.90;;;;;;5069277;28;20681;-81
2022/10/10 04:51:02;;;;;;;3.47;0.90;;;6.20;99.90;;;;;;5068621;28;20677;-82
2022/10/10 04:53:28;;;;;;;2.30;1.03;;;6.20;99.90;;;;;;5068894;28;20419;-83
2022/10/10 04:55:53;;;;;;;3.07;1.30;;;6.20;99.90;;;;;;5069168;28;20649;-81
2022/10/10 04:58:25;;;;;;;2.90;0.97;;;6.20;99.90;;;;;;5068880;28;20568;-80
2022/10/10 05:00:52;;;;;;;2.20;1.00;;;6.10;99.90;;;;;;5068828;28;20504;-80
2022/10/10 05:03:17;;;;;;;2.87;1.40;;;6.10;99.90;;;;;;5068922;28;20907;-82
2022/10/10 05:05:43;;;;;;;2.20;0.73;;;6.10;99.90;;;;;;5068342;28;20422;-81
2022/10/10 05:08:11;;;;;;;3.30;1.40;;;6.10;99.90;;;;;;5068763;28;20169;-80
2022/10/10 05:10:38;;;;;;;3.07;1.37;;;6.10;99.90;;;;;;5068480;28;20759;-80
2022/10/10 05:13:05;;;;;;;3.63;1.47;;;6.10;99.90;;;;;;5068676;28;20407;-80
2022/10/10 05:15:33;;;;;;;2.20;1.03;;;6.10;99.90;;;;;;5068468;28;20432;-81
2022/10/10 05:17:58;;;;;;;4.20;1.40;;;6.10;99.90;;;;;;5068532;28;20436;-80
2022/10/10 05:20:24;;;;;;;4.80;1.40;;;6.10;99.90;;;;;;5067956;28;20818;-80
2022/10/10 05:22:49;;;;;;;6.27;1.33;;;6.10;99.90;;;;;;5058778;28;20172;-84
2022/10/10 05:25:18;;;;;;;3.13;1.30;;;6.10;99.90;;;;;;5055255;28;20178;-81
2022/10/10 05:27:43;;;;;;;2.10;1.13;;;6.00;99.90;;;;;;5055152;28;20174;-83
2022/10/10 05:30:09;;;;;;;6.30;1.27;;;6.00;99.90;;;;;;5054869;28;20509;-83
2022/10/10 05:32:35;;;;;;;4.40;1.50;;;6.00;99.90;;;;;;5055076;28;20209;-80
2022/10/10 05:35:00;;;;;;;2.60;1.73;;;6.00;99.90;;;;;;5054571;28;20455;-80
2022/10/10 05:37:26;;;;;;;4.53;1.40;;;6.00;99.90;;;;;;5054911;28;20508;-81
2022/10/10 05:39:51;;;;;;;6.73;2.20;;;6.00;99.90;;;;;;5055046;28;20627;-81
2022/10/10 05:42:17;;;;;;;4.70;1.43;;;6.00;99.90;;;;;;5054845;28;20265;-81
2022/10/10 05:44:42;;;;;;;8.60;1.67;;;6.00;99.90;;;;;;5054742;28;20657;-81
2022/10/10 05:47:08;;;;;;;3.40;1.80;;;6.00;99.90;;;;;;5054937;28;20177;-80
2022/10/10 05:49:33;;;;;;;4.70;1.37;;;5.90;99.90;;;;;;5054704;28;20223;-81
2022/10/10 05:51:59;;;;;;;3.90;1.70;;;5.90;99.90;;;;;;5054227;28;20254;-81
2022/10/10 05:54:24;;;;;;;2.77;1.13;;;6.00;99.90;;;;;;5054742;28;20196;-80
2022/10/10 05:56:50;;;;;;;1.90;0.93;;;5.90;99.90;;;;;;5054539;28;20576;-80
2022/10/10 05:59:15;;;;;;;2.53;1.33;;;5.90;99.90;;;;;;5054611;28;20261;-82
2022/10/10 06:01:40;;;;;;;4.37;2.23;;;5.90;99.90;;;;;;5054612;28;20177;-80
2022/10/10 06:04:06;;;;;;;3.37;1.30;;;6.00;99.90;;;;;;5054373;28;20197;-81
2022/10/10 06:06:32;;;;;;;1.67;1.40;;;6.00;99.90;;;;;;5054120;28;20250;-85
2022/10/10 06:08:58;;;;;;;2.30;1.50;;;6.00;99.90;;;;;;5053003;28;20665;-83
2022/10/10 06:11:24;;;;;;;4.87;1.50;;;6.10;99.90;;;;;;5054021;28;20226;-83
2022/10/10 06:13:53;;;;;;;4.47;1.60;;;6.10;99.90;;;;;;5054346;28;20549;-80
2022/10/10 06:16:19;;;;;;;2.40;1.13;;;6.10;99.90;;;;;;5054371;28;20862;-84
2022/10/10 06:18:45;;;;;;;5.33;2.10;;;6.10;99.90;;;;;;5054064;28;20413;-83
2022/10/10 06:21:12;;;;;;;4.80;1.40;;;6.10;99.90;;;;;;5053874;28;20437;-85
2022/10/10 06:23:37;;;;;;;3.20;1.63;;;6.20;99.90;;;;;;5054038;28;20661;-81
2022/10/10 06:26:03;;;;;;;4.77;3.00;;;6.30;99.90;;;;;;5054091;28;20420;-83
2022/10/10 06:28:29;;;;;;;1.63;1.23;;;6.40;99.90;;;;;;5054093;28;20171;-83
2022/10/10 06:30:59;;;;;;;6.37;1.93;;;6.70;99.90;;;;;;5053836;28;20557;-83
2022/10/10 06:33:25;;;;;;;4.20;1.90;;;8.80;99.90;;;;;;5052949;28;20424;-83
2022/10/10 06:35:51;;;;;;;3.67;2.07;;;9.70;34.20;;;;;;5053434;28;20440;-83
2022/10/10 06:38:17;;;;;;;4.90;2.17;;;9.30;53.50;;;;;;5053814;28;20505;-83
2022/10/10 06:40:43;;;;;;;3.30;1.40;;;10.20;1.00;;;;;;5053702;28;20185;-80
2022/10/10 06:43:11;;;;;;;3.17;1.20;;;11.20;1.00;;;;;;5053842;28;20177;-81
2022/10/10 06:45:41;;;;;;;1.30;0.90;;;11.00;1.00;;;;;;5053521;28;20426;-83
2022/10/10 06:48:08;;;;;;;8.53;1.43;;;10.10;1.00;;;;;;5053637;28;20900;-81
2022/10/10 06:50:33;;;;;;;3.23;1.50;;;9.10;69.00;;;;;;5053270;28;20456;-81
2022/10/10 06:52:59;;;;;;;7.17;1.60;;;8.40;99.90;;;;;;5053349;28;20478;-85
2022/10/10 06:55:25;;;;;;;1.70;1.47;;;8.20;99.90;;;;;;5053465;28;20229;-81
2022/10/10 06:57:51;;;;;;;5.57;1.97;;;8.30;99.90;;;;;;5053626;28;20170;-82
2022/10/10 07:00:17;;;;;;;4.27;1.27;;;8.30;99.90;;;;;;5053315;28;21019;-83
2022/10/10 07:02:43;;;;;;;2.33;1.27;;;9.40;99.90;;;;;;5051988;28;20188;-84
2022/10/10 07:05:10;;;;;;;3.07;1.50;;;9.90;1.00;;;;;;5053031;28;20200;-81
2022/10/10 07:07:37;;;;;;;3.10;0.93;;;11.30;99.90;;;;;;5052063;28;20528;-84
2022/10/10 07:10:03;;;;;;;4.20;1.43;;;10.80;99.90;;;;;;5053020;28;20785;-81
2022/10/10 07:12:28;;;;;;;4.43;1.90;;;10.10;1.00;;;;;;5053449;28;20421;-81
2022/10/10 07:14:54;;;;;;;4.40;1.27;;;9.80;1.00;;;;;;5053218;28;20413;-81
2022/10/10 07:17:19;;;;;;;4.00;1.27;;;10.40;1.00;;;;;;5052969;28;20183;-86
2022/10/10 07:19:45;;;;;;;1.80;1.17;;;11.00;99.90;;;;;;5052851;28;20184;-84
2022/10/10 07:22:10;;;;;;;4.27;1.17;;;11.60;99.90;;;;;;5052936;28;20170;-82
2022/10/10 07:24:36;;;;;;;5.27;1.57;;;12.80;1.00;;;;;;5053063;28;20177;-81
2022/10/10 07:27:02;;;;;;;3.63;0.70;;;12.50;99.90;;;;;;5053113;28;20257;-81
2022/10/10 07:29:30;;;;;;;2.80;1.20;;;13.10;99.90;;;;;;5052816;28;20512;-81
2022/10/10 07:31:56;;;;;;;7.10;1.70;;;13.30;1.00;;;;;;5052583;28;20620;-81
2022/10/10 07:34:22;;;;;;;5.40;1.17;;;13.70;1.00;;;;;;5052532;28;20780;-82
2022/10/10 07:36:49;;;;;;;3.40;1.57;;;14.30;99.90;;;;;;5052698;28;20428;-82
2022/10/10 07:39:22;;;;;;;2.80;1.07;;;15.50;99.90;;;;;;5052602;28;20710;-81
2022/10/10 07:41:49;;;;;;;2.20;0.53;;;15.80;99.90;;;;;;5052685;28;20909;-82
2022/10/10 07:44:14;;;;;;;2.20;1.60;;;16.00;99.90;;;;;;5052538;28;20409;-81
2022/10/10 07:46:40;;;;;;;1.40;0.80;;;16.20;99.90;;;;;;5052385;28;20743;-81
2022/10/10 07:49:06;;;;;;;2.60;0.93;;;16.80;99.90;;;;;;5052641;28;20177;-81
2022/10/10 07:51:33;;;;;;;5.07;1.27;;;16.20;99.90;;;;;;5052030;28;20215;-81
2022/10/10 07:53:58;;;;;;;3.03;1.00;;;16.30;99.90;;;;;;5052429;28;20414;-81
2022/10/10 07:56:24;;;;;;;1.40;0.40;;;16.70;99.90;;;;;;5052367;28;20420;-81
2022/10/10 07:58:49;;;;;;;3.57;1.00;;;16.80;99.90;;;;;;5052448;28;20208;-83
2022/10/10 08:01:15;;;;;;;1.93;0.43;;;17.40;99.90;;;;;;5052363;28;20178;-81
2022/10/10 08:03:41;;;;;;;2.47;1.00;;;17.80;97.30;;;;;;5052624;28;20227;-82
2022/10/10 08:06:14;;;;;;;6.07;1.37;;;17.50;95.20;;;;;;5051980;28;20216;-82
2022/10/10 08:08:41;;;;;;;5.23;1.40;;;17.80;90.00;;;;;;5052392;28;20207;-82
2022/10/10 08:11:07;;;;;;;2.10;1.13;;;17.80;94.10;;;;;;5052157;28;20515;-82
2022/10/10 08:13:34;;;;;;;3.60;1.30;;;18.10;82.50;;;;;;5052295;28;20410;-83
2022/10/10 08:16:03;;;;;;;3.53;0.90;;;17.90;90.50;;;;;;5052291;28;20406;-82
2022/10/10 08:18:31;;;;;;;2.47;1.23;;;18.60;82.70;;;;;;5052352;28;20411;-82
2022/10/10 08:21:09;;;;;;;2.70;1.30;;;18.20;58.40;;;;;;5051822;28;20418;-82
2022/10/10 08:23:35;;;;;;;2.53;1.10;;;18.10;70.30;;;;;;5052250;28;20410;-82
2022/10/10 08:26:03;;;;;;;3.50;1.90;;;18.90;67.40;;;;;;5052199;28;20457;-82
2022/10/10 08:28:28;;;;;;;3.03;1.53;;;18.10;53.90;;;;;;5052166;28;20169;-81
2022/10/10 08:30:54;;;;;;;2.10;0.77;;;19.30;66.50;;;;;;5052011;28;20536;-82
2022/10/10 08:33:20;;;;;;;2.67;1.57;;;18.60;57.70;;;;;;5052084;28;20167;-81
2022/10/10 08:35:46;;;;;;;2.47;1.20;;;19.90;66.10;;;;;;5051796;28;20464;-82
2022/10/10 08:38:13;;;;;;;2.00;1.73;;;19.30;50.50;;;;;;5052108;28;20180;-81
2022/10/10 08:40:48;;;;;;;2.83;1.23;;;19.50;50.20;;;;;;5052019;28;20595;-80
2022/10/10 08:43:28;;;;;;;1.67;1.33;;;19.40;44.60;;;;;;5052074;28;20923;-80
2022/10/10 08:45:56;;;;;;;4.47;1.60;;;19.80;49.00;;;;;;5052057;28;20416;-80
2022/10/10 08:48:26;;;;;;;3.10;1.10;;;18.50;46.00;;;;;;5051923;28;20412;-80
2022/10/10 08:51:00;;;;;;;3.47;1.33;;;20.00;55.40;;;;;;5051545;28;20861;-80
2022/10/10 08:53:39;;;;;;;1.67;0.70;;;19.60;45.40;;;;;;5052134;28;20383;-80
2022/10/10 08:56:06;;;;;;;2.30;1.20;;;20.20;45.40;;;;;;5052192;28;20501;-80
2022/10/10 08:58:42;;;;;;;2.73;1.40;;;21.10;49.10;;;;;;5054995;28;20803;-83
2022/10/10 09:01:24;;;;;;;2.07;1.40;;;20.90;40.90;;;;;;5054378;28;20770;-81
2022/10/10 09:03:53;;;;;;;6.17;1.27;;;20.90;32.90;;;;;;5055738;28;20432;-80
2022/10/10 09:06:26;;;;;;;2.97;0.80;;;20.60;26.80;;;;;;5055194;28;20419;-81
2022/10/10 09:09:18;;;;;;;1.93;1.00;;;21.80;32.70;;;;;;5055606;28;20423;-80
2022/10/10 09:12:02;;;;;;;2.63;0.97;;;21.60;31.20;;;;;;5055343;28;20557;-81
2022/10/10 09:14:46;;;;;;;1.80;0.87;;;21.90;36.60;;;;;;5055578;28;20503;-80
2022/10/10 09:17:37;;;;;;;1.63;1.50;;;22.60;31.20;;;;;;5055570;28;20418;-80
2022/10/10 09:20:06;;;;;;;1.80;1.07;;;22.40;29.40;;;;;;5055557;28;20404;-81
2022/10/10 09:22:47;;;;;;;2.37;0.60;;;22.90;30.80;;;;;;5056035;28;20459;-81
2022/10/10 09:25:22;;;;;;;1.07;0.53;;;22.90;27.80;;;;;;5055727;28;20768;-82
2022/10/10 09:28:19;;;;;;;2.10;0.90;;;22.20;23.20;;;;;;5055237;28;20440;-81
2022/10/10 09:30:51;;;;;;;2.97;0.63;;;22.10;21.80;;;;;;5055173;28;20412;-80
2022/10/10 09:33:28;;;;;;;1.43;0.77;;;23.40;32.00;;;;;;5055076;28;20453;-80
2022/10/10 09:35:56;;;;;;;2.03;1.03;;;23.80;33.30;;;;;;5054489;28;20908;-82
2022/10/10 09:38:42;;;;;;;2.20;1.03;;;23.70;27.50;;;;;;5053572;28;20412;-80
2022/10/10 09:41:23;;;;;;;2.70;1.10;;;23.40;22.30;;;;;;5054865;28;20467;-81
2022/10/10 09:43:58;;;;;;;2.40;0.60;;;22.70;17.90;;;;;;5054848;28;20491;-81
2022/10/10 09:46:24;;;;;;;2.30;0.63;;;23.10;20.60;;;;;;5054891;28;21009;-81
2022/10/10 09:48:51;;;;;;;1.13;0.60;;;22.50;15.70;;;;;;5054635;28;20416;-82
2022/10/10 09:51:18;;;;;;;2.80;0.73;;;23.50;24.70;;;;;;5054376;28;20408;-81
2022/10/10 09:53:46;;;;;;;1.97;0.70;;;23.70;20.70;;;;;;5054866;28;20458;-81
2022/10/10 09:56:27;;;;;;;1.20;0.50;;;23.90;21.00;;;;;;5054641;28;20424;-81
2022/10/10 09:58:54;;;;;;;3.70;0.93;;;23.40;18.90;;;;;;5054588;28;20408;-81
2022/10/10 10:01:25;;;;;;;1.83;0.37;;;24.00;21.70;;;;;;5054520;28;20893;-84
2022/10/10 10:04:13;;;;;;;1.30;0.50;;;24.10;20.00;;;;;;5054632;28;20420;-81
2022/10/10 10:06:43;;;;;;;1.53;0.70;;;22.20;8.10;;;;;;5054442;28;20409;-81
2022/10/10 10:09:15;;;;;;;2.50;0.80;;;23.20;19.80;;;;;;5054273;28;20420;-81
2022/10/10 10:11:42;;;;;;;1.27;0.37;;;23.60;18.30;;;;;;5054226;28;20979;-80
2022/10/10 10:14:24;;;;;;;2.63;0.73;;;23.30;18.20;;;;;;5054265;28;20921;-81
2022/10/10 10:16:51;;;;;;;2.20;1.07;;;24.20;22.60;;;;;;5054403;28;20404;-80
2022/10/10 10:19:37;;;;;;;1.20;0.70;;;24.00;17.20;;;;;;5053950;28;20766;-84
2022/10/10 10:22:04;;;;;;;2.10;1.03;;;24.30;21.10;;;;;;5054234;28;20460;-81
2022/10/10 10:24:37;;;;;;;1.60;0.60;;;24.10;18.60;;;;;;5054069;28;20416;-83
2022/10/10 10:27:22;;;;;;;2.20;0.90;;;23.10;12.50;;;;;;5053980;28;20495;-81
2022/10/10 10:29:50;;;;;;;1.57;0.57;;;22.00;8.00;;;;;;5054058;28;20404;-83
2022/10/10 10:32:36;;;;;;;3.80;0.97;;;21.00;6.90;;;;;;5054019;28;20925;-81
2022/10/10 10:35:38;;;;;;;2.07;1.33;;;20.00;11.80;;;;;;5053675;28;20782;-83
2022/10/10 10:38:06;;;;;;;3.20;1.50;;;19.70;22.20;;;;;;5053870;28;20416;-83
2022/10/10 10:40:43;;;;;;;4.23;1.20;;;19.80;24.60;;;;;;5053894;28;20479;-81
2022/10/10 10:43:23;;;;;;;3.40;1.70;;;19.40;28.20;;;;;;5053814;28;20746;-80
2022/10/10 10:46:09;;;;;;;1.47;0.53;;;21.70;35.40;;;;;;5053629;28;20420;-81
2022/10/10 10:48:46;;;;;;;2.23;0.83;;;22.40;27.60;;;;;;5053542;28;20504;-81
2022/10/10 10:51:47;;;;;;;2.53;0.70;;;22.80;24.00;;;;;;5053274;28;20411;-80
2022/10/10 10:54:24;;;;;;;1.23;0.47;;;23.30;22.50;;;;;;5053686;28;20847;-81
2022/10/10 10:57:08;;;;;;;4.40;1.07;;;21.90;16.40;;;;;;5053461;28;20912;-81
2022/10/10 10:59:53;;;;;;;0.97;0.60;;;21.00;17.50;;;;;;5053447;28;20442;-81
2022/10/10 11:02:44;;;;;;;2.00;1.00;;;19.90;20.30;;;;;;5053479;28;20444;-81
2022/10/10 11:05:32;;;;;;;1.97;0.77;;;19.60;29.50;;;;;;5053011;28;20474;-81
2022/10/10 11:08:08;;;;;;;2.17;0.50;;;20.00;40.90;;;;;;5053349;28;20422;-81
2022/10/10 11:11:02;;;;;;;1.57;0.57;;;20.10;33.60;;;;;;5053013;28;20454;-80
2022/10/10 11:13:37;;;;;;;1.43;0.87;;;20.40;39.00;;;;;;5043797;28;20423;-81
2022/10/10 11:16:21;;;;;;;3.23;0.53;;;21.70;37.50;;;;;;5053122;28;20407;-81
2022/10/10 11:19:08;;;;;;;0.83;0.50;;;22.80;30.70;;;;;;5052646;28;20423;-80
2022/10/10 11:21:39;;;;;;;1.33;0.50;;;23.20;29.90;;;;;;5052514;28;20463;-81
2022/10/10 11:24:21;;;;;;;1.20;0.60;;;24.20;27.70;;;;;;5052994;28;20412;-82
2022/10/10 11:26:53;;;;;;;2.30;0.97;;;24.70;25.10;;;;;;5052872;28;20415;-81
2022/10/10 11:29:28;;;;;;;1.43;0.60;;;24.40;18.80;;;;;;5052895;28;20503;-80
2022/10/10 11:32:11;;;;;;;2.47;1.03;;;24.10;18.80;;;;;;5052856;28;20424;-81
2022/10/10 11:35:00;;;;;;;1.77;0.60;;;24.00;16.60;;;;;;5052636;28;20408;-82
2022/10/10 11:37:29;;;;;;;3.50;0.90;;;24.00;14.80;;;;;;5052795;28;20397;-81
2022/10/10 11:39:59;;;;;;;3.23;0.63;;;24.20;18.70;;;;;;5052691;28;20420;-82
2022/10/10 11:42:54;;;;;;;1.87;0.70;;;24.00;13.80;;;;;;5052606;28;20420;-81
2022/10/10 11:45:26;;;;;;;2.07;0.77;;;23.50;14.10;;;;;;5052174;28;20511;-81
2022/10/10 11:48:17;;;;;;;2.50;0.60;;;22.00;10.50;;;;;;5052628;28;20436;-81
2022/10/10 11:50:43;;;;;;;2.47;0.87;;;21.40;11.50;;;;;;5052260;28;20409;-81
2022/10/10 11:53:38;;;;;;;2.33;0.50;;;22.90;17.00;;;;;;5052590;28;20427;-81
2022/10/10 11:56:10;;;;;;;2.10;0.57;;;24.50;19.90;;;;;;5052543;28;20420;-81
2022/10/10 11:58:40;;;;;;;1.53;0.50;;;22.90;10.10;;;;;;5052582;28;20769;-81
2022/10/10 12:01:15;;;;;;;1.20;0.30;;;22.50;9.10;;;;;;5052393;28;20468;-81
2022/10/10 12:03:40;;;;;;;2.77;0.43;;;22.20;12.80;;;;;;5052008;28;20748;-83
2022/10/10 12:06:38;;;;;;;3.23;1.07;;;22.70;12.40;;;;;;5052347;28;20420;-81
2022/10/10 12:09:16;;;;;;;3.57;0.77;;;23.10;15.70;;;;;;5047990;28;20525;-84
2022/10/10 12:12:10;;;;;;;2.40;0.63;;;22.90;11.80;;;;;;5052088;28;20464;-81
2022/10/10 12:14:40;;;;;;;2.20;0.67;;;23.30;14.40;;;;;;5052220;28;20935;-81
2022/10/10 12:17:28;;;;;;;6.53;1.00;;;23.10;14.80;;;;;;5052275;28;20998;-84
2022/10/10 12:19:54;;;;;;;1.13;1.03;;;23.80;18.90;;;;;;5051857;28;20416;-81
2022/10/10 12:22:28;;;;;;;1.30;0.53;;;23.50;14.30;;;;;;5052232;28;20479;-81
2022/10/10 12:25:44;;;;;;;2.87;0.67;;;23.70;12.80;;;;;;5052260;28;20826;-80
2022/10/10 12:28:13;;;;;;;2.50;1.17;;;;;;;;;;5043268;28;20424;-81
2022/10/10 12:30:51;;;;;;;2.60;0.83;;;21.70;1.30;;;;;;5052234;28;20416;-81
2022/10/10 12:33:32;;;;;;;1.30;0.83;;;21.10;21.20;;;;;;5054890;28;20404;-81
2022/10/10 12:36:15;;;;;;;1.93;0.70;;;20.70;33.40;;;;;;5056245;28;20415;-81
2022/10/10 12:39:08;;;;;;;3.00;1.27;;;20.50;38.30;;;;;;5056233;28;20416;-79
2022/10/10 12:41:52;;;;;;;3.67;1.33;;;20.20;47.30;;;;;;5055791;28;20479;-82
2022/10/10 12:44:29;;;;;;;2.30;1.00;;;19.80;73.70;;;;;;5056129;28;20923;-81
2022/10/10 12:47:44;;;;;;;2.60;1.50;;;19.70;93.90;;;;;;5056120;28;20498;-79
2022/10/10 12:50:27;;;;;;;2.90;1.70;;;19.80;99.90;;;;;;5055123;28;20427;-82
2022/10/10 12:53:02;;;;;;;3.50;0.73;;;19.70;99.90;;;;;;5055876;28;20411;-82
2022/10/10 12:55:40;;;;;;;2.93;0.63;;;19.50;99.90;;;;;;5055713;28;20951;-82
2022/10/10 12:58:16;;;;;;;3.90;1.30;;;19.50;99.90;;;;;;5056035;28;20419;-82
2022/10/10 13:00:45;;;;;;;3.13;0.70;;;19.50;99.90;;;;;;5055680;28;20465;-83
2022/10/10 13:03:25;;;;;;;1.20;0.60;;;19.70;99.90;;;;;;5055489;28;20943;-82
2022/10/10 13:05:52;;;;;;;4.13;1.07;;;19.70;99.90;;;;;;5054377;28;21164;-83
2022/10/10 13:08:23;;;;;;;2.80;0.90;;;19.60;99.90;;;;;;5055469;28;20991;-82
2022/10/10 13:11:08;;;;;;;2.90;1.30;;;19.50;99.90;;;;;;5055366;28;20569;-82
2022/10/10 13:13:34;;;;;;;2.50;1.20;;;19.80;99.90;;;;;;5055507;28;20422;-82
2022/10/10 13:16:07;;;;;;;2.00;0.90;;;19.90;99.90;;;;;;5055408;28;20413;-81
2022/10/10 13:18:37;;;;;;;2.37;1.10;;;19.60;99.90;;;;;;5055074;28;20419;-82